.
WxDataArchive / Data Records for 2009-02-05
2009-02-04 February 2009 2009-02-06

Data Records for Thursday, 05 February 2009

Time	Temp	Chill	HIndex	Humid	Dewpt	 Wind 	HiWind	WindDir	Rain 	Barom 
-----	----	-----	------	-----	-----	------	------	-------	-----	----- 
00:00	10.0	10.0	10.0	69	1.9	0	0	---	0.00	30.579 
00:05	9.9	9.9	9.9	69	1.8	0	0	---	0.00	30.575 
00:10	10.0	10.0	10.0	70	2.2	0	0	---	0.00	30.577 
00:15	10.0	10.0	10.0	69	1.9	0	0	---	0.00	30.578 
00:20	9.9	9.9	9.9	69	1.8	0	0	---	0.00	30.577 
00:25	9.9	9.9	9.9	70	2.1	0	0	---	0.00	30.577 
00:30	9.9	9.9	9.9	70	2.1	0	0	---	0.00	30.573 
00:35	9.9	9.9	9.9	70	2.1	0	1	225	0.00	30.572 
00:40	10.0	10.0	10.0	70	2.2	0	0	---	0.00	30.577 
00:45	9.9	9.9	9.9	70	2.1	0	0	---	0.00	30.579 
00:50	9.9	9.9	9.9	69	1.8	0	0	---	0.00	30.578 
00:55	9.9	9.9	9.9	69	1.8	0	0	---	0.00	30.579 
01:00	9.9	9.9	9.9	70	2.1	0	0	---	0.00	30.581 
01:05	10.0	10.0	10.0	70	2.2	0	0	---	0.00	30.582 
01:10	10.0	10.0	10.0	70	2.2	0	0	---	0.00	30.581 
01:15	10.0	10.0	10.0	71	2.5	0	1	225	0.00	30.578 
01:20	10.2	10.2	10.2	70	2.4	0	0	---	0.00	30.579 
01:25	10.2	10.2	10.2	70	2.4	0	0	---	0.00	30.575 
01:30	10.4	10.4	10.4	70	2.6	0	1	225	0.00	30.573 
01:35	10.4	10.4	10.4	70	2.6	0	0	---	0.00	30.575 
01:40	10.4	10.4	10.4	70	2.6	0	1	225	0.00	30.571 
01:45	10.5	10.5	10.5	69	2.4	0	0	---	0.00	30.573 
01:50	10.4	10.4	10.4	69	2.3	0	0	---	0.00	30.578 
01:55	10.4	10.4	10.4	70	2.6	0	0	---	0.00	30.580 
02:00	10.4	10.4	10.4	69	2.3	0	0	---	0.00	30.580 
02:05	10.4	10.4	10.4	69	2.3	0	0	---	0.00	30.578 
02:10	10.5	10.5	10.5	69	2.4	0	0	---	0.00	30.579 
02:15	10.5	10.5	10.5	69	2.4	0	0	---	0.00	30.579 
02:20	10.5	10.5	10.5	69	2.4	0	0	---	0.00	30.579 
02:25	10.5	10.5	10.5	69	2.4	0	0	---	0.00	30.580 
02:30	10.7	10.7	10.7	69	2.6	0	0	---	0.00	30.582 
02:35	10.7	10.7	10.7	69	2.6	0	0	---	0.00	30.580 
02:40	10.9	10.9	10.9	69	2.8	0	1	225	0.00	30.580 
02:45	11.1	11.1	11.1	69	3.0	0	1	225	0.00	30.580 
02:50	11.1	11.1	11.1	69	3.0	0	0	---	0.00	30.581 
02:55	11.2	11.2	11.2	69	3.0	0	0	---	0.00	30.579 
03:00	11.2	11.2	11.2	69	3.0	0	0	---	0.00	30.578 
03:05	11.4	11.4	11.4	68	2.9	0	0	---	0.00	30.577 
03:10	11.4	11.4	11.4	68	2.9	0	0	---	0.00	30.577 
03:15	11.4	11.4	11.4	68	2.9	0	0	---	0.00	30.578 
03:20	11.4	11.4	11.4	68	2.9	0	0	---	0.00	30.578 
03:25	11.4	11.4	11.4	69	3.2	0	0	---	0.00	30.576 
03:30	11.4	11.4	11.4	69	3.2	0	0	---	0.00	30.572 
03:35	11.4	11.4	11.4	69	3.2	0	1	225	0.00	30.573 
03:40	11.4	11.4	11.4	69	3.2	0	1	225	0.00	30.574 
03:45	11.6	11.6	11.6	70	3.7	0	1	225	0.00	30.572 
03:50	11.6	11.6	11.6	70	3.7	0	1	225	0.00	30.569 
03:55	11.7	11.7	11.7	70	3.8	0	0	---	0.00	30.567 
04:00	11.7	11.7	11.7	70	3.8	0	0	---	0.00	30.564 
04:05	11.7	11.7	11.7	71	4.1	0	0	---	0.00	30.563 
04:10	11.7	11.7	11.7	71	4.1	0	0	---	0.00	30.563 
04:15	11.7	11.7	11.7	71	4.1	0	0	---	0.00	30.562 
04:20	11.7	11.7	11.7	71	4.1	0	0	---	0.00	30.562 
04:25	11.7	11.7	11.7	72	4.4	0	1	225	0.00	30.562 
04:30	11.7	11.7	11.7	72	4.4	0	0	---	0.00	30.559 
04:35	11.7	11.7	11.7	73	4.7	0	0	---	0.00	30.562 
04:40	11.7	11.7	11.7	73	4.7	0	0	---	0.00	30.563 
04:45	11.9	11.9	11.9	75	5.5	0	1	225	0.00	30.563 
04:50	12.4	12.4	12.4	77	6.6	0	1	225	0.00	30.563 
04:55	12.8	12.8	12.8	78	7.3	0	2	225	0.00	30.563 
05:00	12.9	12.9	12.9	78	7.4	0	2	225	0.00	30.563 
05:05	13.1	13.1	13.1	79	7.8	0	2	225	0.00	30.565 
05:10	13.1	13.1	13.1	79	7.8	0	1	225	0.00	30.564 
05:15	13.1	13.1	13.1	79	7.8	0	1	225	0.00	30.566 
05:20	13.1	13.1	13.1	79	7.8	1	4	248	0.00	30.564 
05:25	13.1	13.1	13.1	79	7.8	0	3	248	0.00	30.563 
05:30	12.9	12.9	12.9	78	7.4	1	4	248	0.00	30.564 
05:35	12.9	12.9	12.9	78	7.4	0	2	248	0.00	30.562 
05:40	12.8	12.8	12.8	78	7.3	0	1	248	0.00	30.563 
05:45	12.8	12.8	12.8	78	7.3	0	2	248	0.00	30.564 
05:50	12.6	12.6	12.6	78	7.1	1	3	248	0.00	30.564 
05:55	12.4	12.4	12.4	77	6.6	0	2	248	0.00	30.565 
06:00	12.1	12.1	12.1	77	6.3	0	2	248	0.00	30.566 
06:05	11.9	11.9	11.9	77	6.1	0	1	248	0.00	30.569 
06:10	11.4	11.4	11.4	77	5.6	0	1	248	0.00	30.568 
06:15	11.1	11.1	11.1	77	5.3	0	2	248	0.00	30.576 
06:20	10.7	10.7	10.7	77	4.9	0	2	248	0.00	30.582 
06:25	10.4	10.4	10.4	77	4.6	0	2	248	0.00	30.583 
06:30	10.0	10.0	10.0	78	4.5	0	1	248	0.00	30.586 
06:35	9.9	9.9	9.9	78	4.4	0	3	248	0.00	30.585 
06:40	9.7	9.7	9.7	78	4.2	1	2	248	0.00	30.583 
06:45	9.3	9.3	9.3	78	3.9	0	2	248	0.00	30.577 
06:50	9.2	9.2	9.2	78	3.8	0	2	248	0.00	30.577 
06:55	8.8	8.8	8.8	78	3.4	0	2	248	0.00	30.577 
07:00	8.6	8.6	8.6	78	3.2	0	1	248	0.00	30.575 
07:05	8.3	8.3	8.3	77	2.6	0	1	248	0.00	30.583 
07:10	7.9	7.9	7.9	77	2.2	0	1	248	0.00	30.585 
07:15	7.6	7.6	7.6	77	1.9	0	1	248	0.00	30.590 
07:20	7.4	7.4	7.4	77	1.7	0	1	248	0.00	30.591 
07:25	7.2	7.2	7.2	77	1.5	0	1	248	0.00	30.591 
07:30	7.0	7.0	7.0	77	1.3	0	1	248	0.00	30.579 
07:35	6.9	6.9	6.9	77	1.2	0	0	---	0.00	30.576 
07:40	6.5	6.5	6.5	77	0.9	0	1	248	0.00	30.576 
07:45	6.1	6.1	6.1	77	0.5	0	0	---	0.00	30.591 
07:50	6.0	6.0	6.0	77	0.4	0	1	248	0.00	30.595 
07:55	6.0	6.0	6.0	78	0.6	0	1	248	0.00	30.588 
08:00	6.1	6.1	6.1	78	0.7	0	1	248	0.00	30.584 
08:05	6.3	6.3	6.3	78	0.9	0	2	248	0.00	30.585 
08:10	6.7	6.7	6.7	77	1.0	0	2	248	0.00	30.581 
08:15	6.9	6.9	6.9	77	1.2	0	1	248	0.00	30.579 
08:20	7.2	7.2	7.2	77	1.5	0	1	248	0.00	30.580 
08:25	7.6	7.6	7.6	76	1.6	0	2	248	0.00	30.577 
08:30	7.9	7.9	7.9	75	1.7	0	1	248	0.00	30.579 
08:35	8.4	8.4	8.4	73	1.6	0	2	248	0.00	30.582 
08:40	8.8	8.8	8.8	72	1.6	0	1	248	0.00	30.585 
08:45	8.8	8.8	8.8	70	1.0	0	1	248	0.00	30.586 
08:50	8.8	8.8	8.8	70	1.0	0	0	---	0.00	30.589 
08:55	8.8	8.8	8.8	70	1.0	0	1	248	0.00	30.586 
09:00	8.8	8.8	8.8	69	0.7	0	2	248	0.00	30.587 
09:05	8.8	8.8	8.8	68	0.4	0	2	248	0.00	30.588 
09:10	9.0	9.0	9.0	68	0.6	0	2	158	0.00	30.585 
09:15	9.5	9.5	9.5	67	0.8	0	2	135	0.00	30.578 
09:20	9.7	9.7	9.7	65	0.3	1	2	135	0.00	30.574 
09:25	9.7	9.7	9.7	65	0.3	0	2	135	0.00	30.572 
09:30	9.7	9.7	9.7	65	0.3	0	1	135	0.00	30.573 
09:35	9.9	9.9	9.9	64	0.2	0	2	135	0.00	30.573 
09:40	10.2	10.2	10.2	63	0.1	1	3	135	0.00	30.573 
09:45	10.7	10.7	10.7	62	0.3	0	2	135	0.00	30.572 
09:50	11.1	11.1	11.1	62	0.7	0	1	135	0.00	30.573 
09:55	11.6	11.6	11.6	60	0.4	1	2	112	0.00	30.571 
10:00	11.6	11.6	11.6	59	0.1	0	1	112	0.00	30.567 
10:05	11.7	11.7	11.7	59	0.2	0	2	112	0.00	30.567 
10:10	12.1	12.1	12.1	59	0.6	0	3	112	0.00	30.569 
10:15	12.3	12.3	12.3	58	0.4	1	5	90	0.00	30.567 
10:20	12.6	12.6	12.6	57	0.3	0	2	90	0.00	30.567 
10:25	12.8	12.8	12.8	57	0.5	1	3	90	0.00	30.567 
10:30	12.9	12.9	12.9	57	0.6	1	3	68	0.00	30.563 
10:35	13.1	13.1	13.1	55	0.0	1	4	68	0.00	30.562 
10:40	13.1	13.1	13.1	56	0.4	1	2	112	0.00	30.561 
10:45	12.9	12.9	12.9	56	0.2	1	4	270	0.00	30.559 
10:50	13.1	13.1	13.1	56	0.4	1	3	90	0.00	30.555 
10:55	13.3	13.3	13.3	56	0.6	1	4	112	0.00	30.552 
11:00	13.6	13.6	13.6	56	0.9	1	4	90	0.00	30.551 
11:05	13.8	13.8	13.8	56	1.0	1	4	90	0.00	30.552 
11:10	14.0	14.0	14.0	56	1.2	0	2	270	0.00	30.552 
11:15	14.3	14.3	14.3	55	1.1	1	4	90	0.00	30.550 
11:20	14.4	14.4	14.4	56	1.6	1	4	135	0.00	30.550 
11:25	14.6	14.6	14.6	56	1.8	2	5	68	0.00	30.549 
11:30	14.6	14.6	14.6	55	1.4	1	5	90	0.00	30.549 
11:35	14.6	14.6	14.6	55	1.4	2	5	45	0.00	30.546 
11:40	14.9	14.9	14.9	55	1.7	1	9	68	0.00	30.541 
11:45	14.9	14.9	14.9	54	1.3	2	9	248	0.00	30.539 
11:50	15.4	15.4	15.4	55	2.2	1	6	225	0.00	30.538 
11:55	15.9	15.9	15.9	54	2.2	1	6	0	0.00	30.534 
12:00	16.4	16.4	16.4	54	2.7	1	7	225	0.00	30.533 
12:05	16.4	16.4	16.4	52	1.9	3	9	270	0.00	30.529 
12:10	16.2	16.2	16.2	53	2.1	3	9	270	0.00	30.526 
12:15	16.5	16.5	16.5	54	2.8	1	6	270	0.00	30.523 
12:20	16.5	16.5	16.5	53	2.4	2	6	248	0.00	30.520 
12:25	16.4	16.4	16.4	54	2.7	2	5	90	0.00	30.519 
12:30	16.5	16.5	16.5	54	2.8	1	5	45	0.00	30.515 
12:35	17.0	17.0	17.0	55	3.7	2	5	112	0.00	30.516 
12:40	17.5	17.5	17.5	54	3.7	2	6	248	0.00	30.513 
12:45	17.7	17.7	17.7	54	3.9	3	10	248	0.00	30.513 
12:50	18.0	18.0	18.0	52	3.4	2	10	90	0.00	30.508 
12:55	17.8	17.8	17.8	52	3.2	2	6	225	0.00	30.504 
13:00	17.8	17.8	17.8	51	2.8	3	8	90	0.00	30.502 
13:05	17.8	17.8	17.8	52	3.2	2	7	90	0.00	30.500 
13:10	18.0	18.0	18.0	51	3.0	2	7	270	0.00	30.498 
13:15	18.3	18.3	18.3	51	3.2	2	9	225	0.00	30.492 
13:20	18.4	18.4	18.4	50	2.9	2	7	292	0.00	30.490 
13:25	18.3	18.3	18.3	50	2.8	3	7	68	0.00	30.486 
13:30	18.3	18.3	18.3	51	3.2	2	6	90	0.00	30.484 
13:35	18.6	18.6	18.6	52	3.9	1	5	68	0.00	30.483 
13:40	18.8	18.8	18.8	51	3.7	1	5	68	0.00	30.477 
13:45	18.8	18.8	18.8	47	1.9	3	9	270	0.00	30.472 
13:50	18.8	18.8	18.8	47	1.9	2	6	270	0.00	30.470 
13:55	18.8	18.8	18.8	48	2.4	2	6	225	0.00	30.469 
14:00	19.1	19.1	19.1	49	3.1	1	6	248	0.00	30.466 
14:05	19.2	19.2	19.2	48	2.8	2	6	292	0.00	30.460 
14:10	19.2	19.2	19.2	48	2.8	2	6	90	0.00	30.454 
14:15	19.4	19.4	19.4	48	3.0	1	5	270	0.00	30.452 
14:20	19.4	19.4	19.4	46	2.0	2	7	90	0.00	30.451 
14:25	19.4	19.4	19.4	46	2.0	2	6	248	0.00	30.447 
14:30	19.4	19.4	19.4	46	2.0	2	7	90	0.00	30.439 
14:35	19.4	19.4	19.4	45	1.6	2	6	292	0.00	30.438 
14:40	19.7	19.7	19.7	45	1.8	3	7	248	0.00	30.436 
14:45	19.9	19.9	19.9	46	2.5	2	7	90	0.00	30.436 
14:50	19.9	19.9	19.9	48	3.4	1	5	68	0.00	30.436 
14:55	20.0	20.0	20.0	47	3.0	1	6	292	0.00	30.435 
15:00	20.0	20.0	20.0	47	3.0	1	4	270	0.00	30.433 
15:05	19.7	19.7	19.7	49	3.7	2	6	90	0.00	30.431 
15:10	19.9	19.9	19.9	48	3.4	2	7	68	0.00	30.429 
15:15	19.5	19.5	19.5	49	3.5	3	6	90	0.00	30.426 
15:20	19.5	19.5	19.5	50	3.9	2	5	112	0.00	30.421 
15:25	19.7	19.7	19.7	50	4.1	2	6	292	0.00	30.418 
15:30	20.0	20.0	20.0	50	4.4	2	5	112	0.00	30.417 
15:35	20.2	20.2	20.2	49	4.1	2	7	90	0.00	30.417 
15:40	20.0	20.0	20.0	49	3.9	2	7	90	0.00	30.416 
15:45	20.0	20.0	20.0	48	3.5	2	5	90	0.00	30.414 
15:50	20.2	20.2	20.2	49	4.1	2	5	292	0.00	30.412 
15:55	20.0	20.0	20.0	49	3.9	2	5	90	0.00	30.406 
16:00	20.0	20.0	20.0	49	3.9	2	5	225	0.00	30.401 
16:05	20.2	20.2	20.2	49	4.1	2	7	112	0.00	30.397 
16:10	19.9	14.1	19.9	49	3.9	4	8	112	0.00	30.396 
16:15	19.5	19.5	19.5	50	3.9	3	11	90	0.00	30.391 
16:20	19.4	19.4	19.4	51	4.3	2	6	45	0.00	30.389 
16:25	19.4	19.4	19.4	50	3.8	3	10	90	0.00	30.388 
16:30	19.2	19.2	19.2	51	4.1	2	5	0	0.00	30.387 
16:35	19.4	19.4	19.4	51	4.3	2	5	112	0.00	30.384 
16:40	19.4	19.4	19.4	50	3.8	3	6	90	0.00	30.378 
16:45	19.2	19.2	19.2	50	3.6	3	9	90	0.00	30.372 
16:50	19.2	19.2	19.2	51	4.1	2	5	90	0.00	30.372 
16:55	19.2	19.2	19.2	51	4.1	2	5	45	0.00	30.372 
17:00	19.2	19.2	19.2	50	3.6	2	6	90	0.00	30.372 
17:05	19.2	19.2	19.2	50	3.6	2	6	90	0.00	30.372 
17:10	19.2	19.2	19.2	50	3.6	2	7	90	0.00	30.372 
17:15	19.2	19.2	19.2	50	3.6	2	5	90	0.00	30.371 
17:20	19.2	19.2	19.2	50	3.6	2	5	112	0.00	30.370 
17:25	19.2	19.2	19.2	50	3.6	1	4	90	0.00	30.369 
17:30	19.1	19.1	19.1	50	3.6	1	4	90	0.00	30.371 
17:35	19.2	19.2	19.2	50	3.6	2	5	90	0.00	30.367 
17:40	19.1	19.1	19.1	50	3.6	1	5	112	0.00	30.359 
17:45	19.1	19.1	19.1	50	3.6	2	5	90	0.00	30.357 
17:50	19.1	19.1	19.1	50	3.6	2	7	90	0.00	30.355 
17:55	18.9	18.9	18.9	51	3.8	2	5	90	0.00	30.350 
18:00	18.8	18.8	18.8	52	4.1	1	3	112	0.00	30.347 
18:05	18.6	18.6	18.6	52	3.9	1	5	112	0.00	30.347 
18:10	18.4	18.4	18.4	53	4.2	1	3	112	0.00	30.345 
18:15	18.3	18.3	18.3	54	4.5	1	4	112	0.00	30.345 
18:20	18.1	18.1	18.1	54	4.3	1	3	112	0.00	30.345 
18:25	18.1	18.1	18.1	55	4.7	1	3	112	0.00	30.344 
18:30	18.1	18.1	18.1	55	4.7	1	4	135	0.00	30.340 
18:35	18.0	18.0	18.0	56	5.0	1	4	112	0.00	30.336 
18:40	18.0	18.0	18.0	56	5.0	1	4	112	0.00	30.331 
18:45	17.8	17.8	17.8	57	5.2	1	3	112	0.00	30.330 
18:50	17.7	17.7	17.7	57	5.1	1	3	112	0.00	30.330 
18:55	17.7	17.7	17.7	58	5.5	1	3	112	0.00	30.328 
19:00	17.5	17.5	17.5	58	5.3	1	3	90	0.00	30.326 
19:05	17.5	17.5	17.5	59	5.6	0	2	90	0.00	30.324 
19:10	17.3	17.3	17.3	59	5.5	0	2	90	0.00	30.327 
19:15	17.2	17.2	17.2	59	5.4	1	3	135	0.00	30.327 
19:20	17.2	17.2	17.2	60	5.7	1	3	135	0.00	30.323 
19:25	17.2	17.2	17.2	60	5.7	1	4	112	0.00	30.320 
19:30	17.2	17.2	17.2	60	5.7	0	2	112	0.00	30.318 
19:35	17.2	17.2	17.2	61	6.1	0	2	112	0.00	30.318 
19:40	17.0	17.0	17.0	61	5.9	0	1	90	0.00	30.319 
19:45	16.9	16.9	16.9	61	5.8	0	3	112	0.00	30.322 
19:50	16.9	16.9	16.9	61	5.8	0	1	112	0.00	30.319 
19:55	16.7	16.7	16.7	62	6.0	0	1	112	0.00	30.324 
20:00	16.7	16.7	16.7	62	6.0	0	1	292	0.00	30.324 
20:05	16.5	16.5	16.5	62	5.8	0	1	292	0.00	30.322 
20:10	16.5	16.5	16.5	62	5.8	0	1	292	0.00	30.319 
20:15	16.4	16.4	16.4	62	5.7	0	2	292	0.00	30.321 
20:20	16.4	16.4	16.4	62	5.7	0	1	292	0.00	30.321 
20:25	16.4	16.4	16.4	62	5.7	0	2	292	0.00	30.325 
20:30	16.5	16.5	16.5	62	5.8	0	2	292	0.00	30.326 
20:35	16.7	16.7	16.7	62	6.0	0	3	248	0.00	30.326 
20:40	16.7	16.7	16.7	62	6.0	0	3	248	0.00	30.327 
20:45	16.7	16.7	16.7	62	6.0	0	2	248	0.00	30.327 
20:50	16.7	16.7	16.7	62	6.0	0	3	248	0.00	30.326 
20:55	16.7	16.7	16.7	62	6.0	1	4	248	0.00	30.327 
21:00	16.7	16.7	16.7	61	5.6	0	3	248	0.00	30.329 
21:05	16.7	16.7	16.7	61	5.6	0	2	248	0.00	30.327 
21:10	16.7	16.7	16.7	61	5.6	0	3	248	0.00	30.326 
21:15	16.5	16.5	16.5	61	5.4	0	1	248	0.00	30.325 
21:20	16.5	16.5	16.5	61	5.4	0	3	248	0.00	30.321 
21:25	16.5	16.5	16.5	60	5.1	0	3	248	0.00	30.315 
21:30	16.5	16.5	16.5	60	5.1	0	1	248	0.00	30.314 
21:35	16.4	16.4	16.4	60	5.0	0	1	248	0.00	30.312 
21:40	16.2	16.2	16.2	60	4.8	0	1	248	0.00	30.313 
21:45	16.2	16.2	16.2	60	4.8	0	1	248	0.00	30.315 
21:50	16.2	16.2	16.2	60	4.8	0	1	248	0.00	30.317 
21:55	16.1	16.1	16.1	60	4.7	0	1	248	0.00	30.314 
22:00	15.9	15.9	15.9	60	4.5	0	1	248	0.00	30.312 
22:05	15.7	15.7	15.7	61	4.7	0	1	248	0.00	30.310 
22:10	15.6	15.6	15.6	61	4.6	0	0	---	0.00	30.308 
22:15	15.2	15.2	15.2	61	4.2	0	1	248	0.00	30.310 
22:20	15.1	15.1	15.1	62	4.5	0	1	248	0.00	30.311 
22:25	14.9	14.9	14.9	62	4.3	0	1	248	0.00	30.307 
22:30	14.8	14.8	14.8	62	4.2	0	0	---	0.00	30.304 
22:35	14.6	14.6	14.6	63	4.3	0	0	---	0.00	30.306 
22:40	14.4	14.4	14.4	63	4.1	0	0	---	0.00	30.311 
22:45	14.3	14.3	14.3	63	4.0	0	0	---	0.00	30.311 
22:50	14.1	14.1	14.1	63	3.9	0	0	---	0.00	30.313 
22:55	14.0	14.0	14.0	64	4.1	0	0	---	0.00	30.312 
23:00	13.8	13.8	13.8	64	3.9	0	0	---	0.00	30.316 
23:05	13.6	13.6	13.6	65	4.1	0	0	---	0.00	30.310 
23:10	13.3	13.3	13.3	65	3.8	0	0	---	0.00	30.309 
23:15	13.1	13.1	13.1	65	3.6	0	0	---	0.00	30.310 
23:20	12.9	12.9	12.9	65	3.4	0	0	---	0.00	30.311 
23:25	12.8	12.8	12.8	66	3.6	0	0	---	0.00	30.310 
23:30	12.6	12.6	12.6	67	3.8	0	0	---	0.00	30.308 
23:35	12.4	12.4	12.4	67	3.6	0	0	---	0.00	30.310 
23:40	12.3	12.3	12.3	68	3.8	0	0	---	0.00	30.306 
23:45	12.1	12.1	12.1	68	3.6	0	0	---	0.00	30.309 
23:50	11.9	11.9	11.9	69	3.7	0	0	---	0.00	30.310 
23:55	11.9	11.9	11.9	69	3.7	0	0	---	0.00	30.310 

CoCoRaHS
IN-AL-39
A2 Web Hosting
Creative Commons License
GoDaddy
search engine by freefind advanced

loaded 2018-11-17 19:22:24 • last modified 2010-11-18 10:43:29
Privacy PolicyDisclaimer
• wx.awcolley.com is powered by PmWiki v.2002016 •
• all content (unless otherwise noted) © 2018 A W Colley